Météo Nord-Pas-de-Calais   La météo au plus près de chez vous

Station météorologique

Observations météo à Chastreix (63098)

63098001 1385 m Dernier relevé à 22:54
17.3°C
Humidité 49 % Vent 9.7 km/h

Journée consultée

Jeudi 3 Septembre 2026

Synthèse de la journée

Périodes de référence en UTC

Température maximale

22.3°C

à 16:06

06h 06h

Température minimale

11.8°C

à 02:00

18h 18h

Rafale maximale

27 km/h

à 16:06

00h 00h

Précipitations

0 mm

Cumul quotidien

06h 06h

Ensoleillement

11h 42 mins

Durée quotidienne

00h 00h

Graphiques de la journée

Heure locale Réduire

Données détaillées

Relevés météo

Pas de 6 minutes Afficher les relevés infra-horaires
Relevés météo détaillés à Chastreix pour le Jeudi 3 Septembre 2026
Heure Température °C Point de rosée °C Humidité % Vent moyen (raf.), km/h Précipitations mm Hauteur neige cm Ensoleillement min Rayonnement global W/m²
22:54 17.3 °C 7.1 °C 51 % 8 km/h (12 km/h) 0 mm0 mm 0 cm 0 min 0 W/m²
22:48 17.5 °C 7.2 °C 51 % 9 km/h (12 km/h) 0 mm0 mm 0 cm 0 min 0 W/m²
22:42 17.5 °C 7.2 °C 51 % 10 km/h (12 km/h) 0 mm0 mm 0 cm 0 min 0 W/m²
22:36 17.4 °C 7.2 °C 51 % 11 km/h (13 km/h) 0 mm0 mm 0 cm 0 min 0 W/m²
22:30 17.3 °C 6.8 °C 50 % 11 km/h (13 km/h) 0 mm0 mm 0 cm 0 min 0 W/m²
22:24 17.3 °C 6.8 °C 50 % 10 km/h (12 km/h) 0 mm0 mm 0 cm 0 min 0 W/m²
22:18 17.5 °C 6.7 °C 49 % 9 km/h (12 km/h) 0 mm0 mm 0 cm 0 min 0 W/m²
22:12 17.6 °C 6.8 °C 49 % 8 km/h (10 km/h) 0 mm0 mm 0 cm 0 min 0 W/m²
22:06 17.7 °C 6.8 °C 49 % 9 km/h (10 km/h) 0 mm0 mm 0 cm 0 min 0 W/m²
22:00 17.6 °C 6.8 °C 49 % 9 km/h (12 km/h) 0 mm0 mm 0 cm 0 min 0 W/m²
21:54 17.5 °C 6.7 °C 49 % 10 km/h (12 km/h) 0 mm0 mm 0 cm 0 min 0 W/m²
21:48 17.4 °C 6.6 °C 49 % 9 km/h (11 km/h) 0 mm0 mm 0 cm 0 min 0 W/m²
21:42 17.3 °C 6.5 °C 49 % 8 km/h (10 km/h) 0 mm0 mm 0 cm 0 min 0 W/m²
21:36 17.8 °C 6.6 °C 48 % 8 km/h (10 km/h) 0 mm0 mm 0 cm 0 min 0 W/m²
21:30 17.6 °C 6.5 °C 48 % 7 km/h (10 km/h) 0 mm0 mm 0 cm 0 min 0 W/m²
21:24 17.8 °C 6.6 °C 48 % 6 km/h (9 km/h) 0 mm0 mm 0 cm 0 min 0 W/m²
21:18 17.8 °C 6.6 °C 48 % 6 km/h (9 km/h) 0 mm0 mm 0 cm 0 min 0 W/m²
21:12 17.7 °C 6.5 °C 48 % 6 km/h (9 km/h) 0 mm0 mm 0 cm 0 min 0 W/m²
21:06 17.8 °C 6.6 °C 48 % 6 km/h (10 km/h) 0 mm0 mm 0 cm 0 min 0 W/m²
21:00 17.8 °C 6.3 °C 47 % 6 km/h (10 km/h) 0 mm0 mm 0 cm 0 min 0 W/m²
20:54 17.4 °C 6 °C 47 % 6 km/h (9 km/h) 0 mm0 mm 0 cm 0 min 0 W/m²
20:48 17.8 °C 6.3 °C 47 % 6 km/h (9 km/h) 0 mm0 mm 0 cm 0 min 0 W/m²
20:42 18.4 °C 6.6 °C 46 % 5 km/h (7 km/h) 0 mm0 mm 0 cm 0 min 0 W/m²
20:36 18.5 °C 6.7 °C 46 % 6 km/h (8 km/h) 0 mm0 mm 0 cm 0 min 0 W/m²
20:30 18.6 °C 6.7 °C 46 % 6 km/h (9 km/h) 0 mm0 mm 0 cm 0 min 0 W/m²
20:24 18.7 °C 6.5 °C 45 % 6 km/h (9 km/h) 0 mm0 mm 0 cm 0 min 0 W/m²
20:18 18.7 °C 6.8 °C 46 % 6 km/h (9 km/h) 0 mm0 mm 0 cm 0 min 0 W/m²
20:12 18.9 °C 6.7 °C 45 % 6 km/h (9 km/h) 0 mm0 mm 0 cm 0 min 0.2 W/m²
20:06 19.1 °C 6.6 °C 44 % 6 km/h (9 km/h) 0 mm0 mm 0 cm 0 min 4.3 W/m²
20:00 19.6 °C 6.7 °C 43 % 6 km/h (9 km/h) 0 mm0 mm 0 cm 3 min 10.2 W/m²
19:54 20.2 °C 7.2 °C 43 % 7 km/h (13 km/h) 0 mm0 mm 0 cm 6 min 20.3 W/m²
19:48 20.3 °C 7 °C 42 % 9 km/h (13 km/h) 0 mm0 mm 0 cm 6 min 25.6 W/m²
19:42 20.5 °C 7.1 °C 42 % 9 km/h (13 km/h) 0 mm0 mm 0 cm 6 min 31.1 W/m²
19:36 20.6 °C 7.2 °C 42 % 9 km/h (14 km/h) 0 mm0 mm 0 cm 6 min 37 W/m²
19:30 20.6 °C 7.2 °C 42 % 9 km/h (14 km/h) 0 mm0 mm 0 cm 6 min 43.1 W/m²
19:24 20.8 °C 7.4 °C 42 % 10 km/h (16 km/h) 0 mm0 mm 0 cm 6 min 49.7 W/m²
19:18 20.8 °C 7.8 °C 43 % 10 km/h (16 km/h) 0 mm0 mm 0 cm 6 min 56.8 W/m²
19:12 20.7 °C 7 °C 41 % 10 km/h (15 km/h) 0 mm0 mm 0 cm 6 min 63.6 W/m²
19:06 21 °C 8.3 °C 44 % 11 km/h (15 km/h) 0 mm0 mm 0 cm 6 min 70.6 W/m²
19:00 20.9 °C 8.2 °C 44 % 12 km/h (21 km/h) 0 mm0 mm 0 cm 6 min 77.7 W/m²
18:54 20.9 °C 7.8 °C 43 % 12 km/h (21 km/h) 0 mm0 mm 0 cm 6 min 84.7 W/m²
18:48 20.8 °C 8.1 °C 44 % 12 km/h (18 km/h) 0 mm0 mm 0 cm 6 min 91.8 W/m²
18:42 20.9 °C 8.2 °C 44 % 12 km/h (19 km/h) 0 mm0 mm 0 cm 6 min 98.8 W/m²
18:36 21 °C 8.3 °C 44 % 13 km/h (20 km/h) 0 mm0 mm 0 cm 6 min 106.2 W/m²
18:30 21.2 °C 8.5 °C 44 % 13 km/h (20 km/h) 0 mm0 mm 0 cm 6 min 113.6 W/m²
18:24 21.4 °C 8.6 °C 44 % 13 km/h (21 km/h) 0 mm0 mm 0 cm 6 min 120.9 W/m²
18:18 21.3 °C 8.5 °C 44 % 12 km/h (21 km/h) 0 mm0 mm 0 cm 6 min 127.6 W/m²
18:12 21.2 °C 8.1 °C 43 % 12 km/h (21 km/h) 0 mm0 mm 0 cm 6 min 129.5 W/m²
18:06 21.5 °C 8.7 °C 44 % 10 km/h (21 km/h) 0 mm0 mm 0 cm 6 min 131.7 W/m²
18:00 21.3 °C 8.9 °C 45 % 10 km/h (22 km/h) 0 mm0 mm 0 cm 6 min 144.2 W/m²
17:54 21.1 °C 8.4 °C 44 % 10 km/h (21 km/h) 0 mm0 mm 0 cm 6 min 145.4 W/m²
17:48 21.5 °C 8.7 °C 44 % 11 km/h (21 km/h) 0 mm0 mm 0 cm 6 min 156.1 W/m²
17:42 21.7 °C 9.2 °C 45 % 11 km/h (19 km/h) 0 mm0 mm 0 cm 6 min 159.7 W/m²
17:36 21.5 °C 8.4 °C 43 % 11 km/h (19 km/h) 0 mm0 mm 0 cm 6 min 169.2 W/m²
17:30 21.2 °C 7.4 °C 41 % 11 km/h (18 km/h) 0 mm0 mm 0 cm 6 min 176.6 W/m²
17:24 21.3 °C 7.9 °C 42 % 12 km/h (18 km/h) 0 mm0 mm 0 cm 6 min 178.5 W/m²
17:18 21.5 °C 7.3 °C 40 % 10 km/h (17 km/h) 0 mm0 mm 0 cm 6 min 177.5 W/m²
17:12 21.5 °C 7.3 °C 40 % 12 km/h (19 km/h) 0 mm0 mm 0 cm 6 min 190.8 W/m²
17:06 21.7 °C 8.2 °C 42 % 11 km/h (19 km/h) 0 mm0 mm 0 cm 6 min 192.7 W/m²
17:00 21.7 °C 7.9 °C 41 % 11 km/h (19 km/h) 0 mm0 mm 0 cm 6 min 204 W/m²
16:54 21.4 °C 7.2 °C 40 % 12 km/h (19 km/h) 0 mm0 mm 0 cm 6 min 208.6 W/m²
16:48 21.2 °C 7.1 °C 40 % 13 km/h (20 km/h) 0 mm0 mm 0 cm 6 min 211.6 W/m²
16:42 21.2 °C 7.1 °C 40 % 12 km/h (20 km/h) 0 mm0 mm 0 cm 6 min 218.2 W/m²
16:36 21.5 °C 7.3 °C 40 % 12 km/h (22 km/h) 0 mm0 mm 0 cm 6 min 227.1 W/m²
16:30 21.5 °C 7 °C 39 % 13 km/h (22 km/h) 0 mm0 mm 0 cm 6 min 228.3 W/m²
16:24 21.8 °C 8.3 °C 42 % 12 km/h (22 km/h) 0 mm0 mm 0 cm 6 min 233.8 W/m²
16:18 21.7 °C 7.5 °C 40 % 12 km/h (19 km/h) 0 mm0 mm 0 cm 6 min 238 W/m²
16:12 22 °C 8.1 °C 41 % 13 km/h (27 km/h) 0 mm0 mm 0 cm 6 min 237.9 W/m²
16:06 22.3 °C 8.8 °C 42 % 13 km/h (27 km/h) 0 mm0 mm 0 cm 6 min 239.9 W/m²
16:00 21.9 °C 8.4 °C 42 % 12 km/h (23 km/h) 0 mm0 mm 0 cm 6 min 247.4 W/m²
15:54 22.2 °C 8.7 °C 42 % 12 km/h (23 km/h) 0 mm0 mm 0 cm 6 min 252 W/m²
15:48 21.6 °C 8.5 °C 43 % 10 km/h (19 km/h) 0 mm0 mm 0 cm 6 min 257.5 W/m²
15:42 21.6 °C 8.5 °C 43 % 12 km/h (19 km/h) 0 mm0 mm 0 cm 6 min 265.1 W/m²
15:36 21.6 °C 8.8 °C 44 % 13 km/h (24 km/h) 0 mm0 mm 0 cm 6 min 268.4 W/m²
15:30 21.5 °C 8.4 °C 43 % 12 km/h (24 km/h) 0 mm0 mm 0 cm 6 min 270.2 W/m²
15:24 21.5 °C 7.7 °C 41 % 12 km/h (19 km/h) 0 mm0 mm 0 cm 6 min 273.2 W/m²
15:18 21.5 °C 8.4 °C 43 % 10 km/h (19 km/h) 0 mm0 mm 0 cm 6 min 276.8 W/m²
15:12 21.4 °C 8.3 °C 43 % 11 km/h (21 km/h) 0 mm0 mm 0 cm 6 min 279.6 W/m²
15:06 21.3 °C 8.2 °C 43 % 10 km/h (21 km/h) 0 mm0 mm 0 cm 6 min 282.1 W/m²
15:00 21.5 °C 8.7 °C 44 % 8 km/h (19 km/h) 0 mm0 mm 0 cm 6 min 284.3 W/m²
14:54 21.2 °C 8.5 °C 44 % 10 km/h (19 km/h) 0 mm0 mm 0 cm 6 min 286.6 W/m²
14:48 21.3 °C 8.9 °C 45 % 12 km/h (25 km/h) 0 mm0 mm 0 cm 6 min 288.4 W/m²
14:42 21.3 °C 8.9 °C 45 % 11 km/h (21 km/h) 0 mm0 mm 0 cm 6 min 290.1 W/m²
14:36 21.2 °C 8.5 °C 44 % 9 km/h (20 km/h) 0 mm0 mm 0 cm 6 min 291.6 W/m²
14:30 21 °C 8.3 °C 44 % 10 km/h (23 km/h) 0 mm0 mm 0 cm 6 min 293 W/m²
14:24 20.9 °C 8.5 °C 45 % 10 km/h (23 km/h) 0 mm0 mm 0 cm 6 min 294.3 W/m²
14:18 20.9 °C 8.5 °C 45 % 9 km/h (23 km/h) 0 mm0 mm 0 cm 6 min 294.9 W/m²
14:12 21.1 °C 8.4 °C 44 % 8 km/h (18 km/h) 0 mm0 mm 0 cm 6 min 295.5 W/m²
14:06 20.4 °C 7.7 °C 44 % 9 km/h (18 km/h) 0 mm0 mm 0 cm 6 min 296.3 W/m²
14:00 20 °C 7.4 °C 44 % 10 km/h (20 km/h) 0 mm0 mm 0 cm 6 min 296.8 W/m²
13:54 20.1 °C 8.1 °C 46 % 11 km/h (20 km/h) 0 mm0 mm 0 cm 6 min 297.2 W/m²
13:48 20.1 °C 7.8 °C 45 % 11 km/h (22 km/h) 0 mm0 mm 0 cm 6 min 297 W/m²
13:42 20 °C 7.4 °C 44 % 10 km/h (22 km/h) 0 mm0 mm 0 cm 6 min 296.7 W/m²
13:36 19.8 °C 7.2 °C 44 % 11 km/h (21 km/h) 0 mm0 mm 0 cm 6 min 296.7 W/m²
13:30 20 °C 7.4 °C 44 % 13 km/h (25 km/h) 0 mm0 mm 0 cm 6 min 295.8 W/m²
13:24 19.8 °C 8.2 °C 47 % 12 km/h (19 km/h) 0 mm0 mm 0 cm 6 min 294.9 W/m²
13:18 19.7 °C 7.4 °C 45 % 13 km/h (20 km/h) 0 mm0 mm 0 cm 6 min 293.8 W/m²
13:12 20 °C 8 °C 46 % 11 km/h (19 km/h) 0 mm0 mm 0 cm 6 min 292.5 W/m²
13:06 19.6 °C 7.7 °C 46 % 10 km/h (19 km/h) 0 mm0 mm 0 cm 6 min 291 W/m²
13:00 19.4 °C 6.8 °C 44 % 11 km/h (19 km/h) 0 mm0 mm 0 cm 6 min 289.8 W/m²
12:54 19.8 °C 7.8 °C 46 % 11 km/h (19 km/h) 0 mm0 mm 0 cm 6 min 287.6 W/m²
12:48 19.6 °C 6.3 °C 42 % 9 km/h (17 km/h) 0 mm0 mm 0 cm 6 min 285.5 W/m²
12:42 19.7 °C 7.1 °C 44 % 7 km/h (14 km/h) 0 mm0 mm 0 cm 6 min 283.8 W/m²
12:36 19.1 °C 4.4 °C 38 % 6 km/h (14 km/h) 0 mm0 mm 0 cm 6 min 281.7 W/m²
12:30 19 °C 6.8 °C 45 % 6 km/h (14 km/h) 0 mm0 mm 0 cm 6 min 278.7 W/m²
12:24 19.1 °C 7.2 °C 46 % 6 km/h (14 km/h) 0 mm0 mm 0 cm 6 min 275.7 W/m²
12:18 18.5 °C 7.6 °C 49 % 7 km/h (14 km/h) 0 mm0 mm 0 cm 6 min 272.5 W/m²
12:12 18.6 °C 9.1 °C 54 % 6 km/h (13 km/h) 0 mm0 mm 0 cm 6 min 269.7 W/m²
12:06 18.5 °C 9 °C 54 % 7 km/h (13 km/h) 0 mm0 mm 0 cm 6 min 266.3 W/m²
12:00 18.3 °C 8.5 °C 53 % 6 km/h (13 km/h) 0 mm0 mm 0 cm 6 min 262.7 W/m²
11:54 18.5 °C 9.8 °C 57 % 6 km/h (13 km/h) 0 mm0 mm 0 cm 6 min 258.9 W/m²
11:48 18 °C 9.3 °C 57 % 7 km/h (14 km/h) 0 mm0 mm 0 cm 6 min 255.3 W/m²
11:42 17.6 °C 9.2 °C 58 % 8 km/h (14 km/h) 0 mm0 mm 0 cm 6 min 251.6 W/m²
11:36 17.6 °C 9.2 °C 58 % 8 km/h (15 km/h) 0 mm0 mm 0 cm 6 min 247.5 W/m²
11:30 17.3 °C 8.4 °C 56 % 8 km/h (15 km/h) 0 mm0 mm 0 cm 6 min 243.2 W/m²
11:24 17.4 °C 8.5 °C 56 % 6 km/h (12 km/h) 0 mm0 mm 0 cm 6 min 238.7 W/m²
11:18 17.2 °C 8.1 °C 55 % 6 km/h (12 km/h) 0 mm0 mm 0 cm 6 min 234.1 W/m²
11:12 17.2 °C 9.4 °C 60 % 6 km/h (10 km/h) 0 mm0 mm 0 cm 6 min 229.3 W/m²
11:06 16.9 °C 8.3 °C 57 % 6 km/h (12 km/h) 0 mm0 mm 0 cm 6 min 224.6 W/m²
11:00 16.9 °C 8.6 °C 58 % 6 km/h (11 km/h) 0 mm0 mm 0 cm 6 min 219.7 W/m²
10:54 16.9 °C 9.3 °C 61 % 5 km/h (11 km/h) 0 mm0 mm 0 cm 6 min 214.4 W/m²
10:48 16.9 °C 8.6 °C 58 % 4 km/h (9 km/h) 0 mm0 mm 0 cm 6 min 209.4 W/m²
10:42 16.6 °C 8.5 °C 59 % 4 km/h (8 km/h) 0 mm0 mm 0 cm 6 min 203.8 W/m²
10:36 16.7 °C 8.1 °C 57 % 4 km/h (9 km/h) 0 mm0 mm 0 cm 6 min 198.2 W/m²
10:30 16.8 °C 6.3 °C 50 % 3 km/h (8 km/h) 0 mm0 mm 0 cm 6 min 192.3 W/m²
10:24 16.7 °C 5 °C 46 % 4 km/h (9 km/h) 0 mm0 mm 0 cm 6 min 186.5 W/m²
10:18 16.6 °C 3.6 °C 42 % 4 km/h (9 km/h) 0 mm0 mm 0 cm 6 min 180.5 W/m²
10:12 16.5 °C 3.9 °C 43 % 4 km/h (7 km/h) 0 mm0 mm 0 cm 6 min 174.2 W/m²
10:06 16.5 °C 5.1 °C 47 % 4 km/h (7 km/h) 0 mm0 mm 0 cm 6 min 167.7 W/m²
10:00 16.7 °C 5 °C 46 % 4 km/h (7 km/h) 0 mm0 mm 0 cm 6 min 161.3 W/m²
09:54 16.7 °C 3.4 °C 41 % 5 km/h (13 km/h) 0 mm0 mm 0 cm 6 min 154.9 W/m²
09:48 16.9 °C 2.5 °C 38 % 6 km/h (13 km/h) 0 mm0 mm 0 cm 6 min 148.2 W/m²
09:42 16.9 °C -2.8 °C 26 % 6 km/h (12 km/h) 0 mm0 mm 0 cm 6 min 141.4 W/m²
09:36 16.6 °C -4.1 °C 24 % 5 km/h (9 km/h) 0 mm0 mm 0 cm 6 min 134.5 W/m²
09:30 16.4 °C -1.2 °C 30 % 4 km/h (9 km/h) 0 mm0 mm 0 cm 6 min 127.8 W/m²
09:24 16.5 °C 2.8 °C 40 % 6 km/h (10 km/h) 0 mm0 mm 0 cm 6 min 120.8 W/m²
09:18 16.3 °C -3.3 °C 26 % 7 km/h (11 km/h) 0 mm0 mm 0 cm 6 min 113.9 W/m²
09:12 16 °C -4.6 °C 24 % 9 km/h (14 km/h) 0 mm0 mm 0 cm 6 min 107.2 W/m²
09:06 15.9 °C -5.2 °C 23 % 9 km/h (14 km/h) 0 mm0 mm 0 cm 6 min 100.4 W/m²
09:00 15.5 °C -5 °C 24 % 10 km/h (16 km/h) 0 mm0 mm 0 cm 6 min 93.6 W/m²
08:54 15.3 °C -4.1 °C 26 % 12 km/h (16 km/h) 0 mm0 mm 0 cm 6 min 87.1 W/m²
08:48 15 °C -3.9 °C 27 % 12 km/h (16 km/h) 0 mm0 mm 0 cm 6 min 80.4 W/m²
08:42 14.7 °C -4.6 °C 26 % 11 km/h (15 km/h) 0 mm0 mm 0 cm 6 min 73.8 W/m²
08:36 14.5 °C -4.8 °C 26 % 10 km/h (14 km/h) 0 mm0 mm 0 cm 6 min 67.3 W/m²
08:30 14.1 °C -3.2 °C 30 % 9 km/h (12 km/h) 0 mm0 mm 0 cm 6 min 56.9 W/m²
08:24 13.7 °C -1.9 °C 34 % 9 km/h (11 km/h) 0 mm0 mm 0 cm 6 min 54.8 W/m²
08:18 13.3 °C -0.7 °C 38 % 8 km/h (11 km/h) 0 mm0 mm 0 cm 3 min 27.1 W/m²
08:12 13.1 °C 0.5 °C 42 % 7 km/h (10 km/h) 0 mm0 mm 0 cm 0 min 7.8 W/m²
08:06 13.1 °C 0.5 °C 42 % 6 km/h (8 km/h) 0 mm0 mm 0 cm 0 min 7.2 W/m²
08:00 13.2 °C 1.2 °C 44 % 5 km/h (8 km/h) 0 mm0 mm 0 cm 0 min 6.5 W/m²
07:54 13.3 °C 1.6 °C 45 % 3 km/h (6 km/h) 0 mm0 mm 0 cm 0 min 5.7 W/m²
07:48 13.3 °C 1.6 °C 45 % 3 km/h (6 km/h) 0 mm0 mm 0 cm 0 min 4.8 W/m²
07:42 13.2 °C 1.5 °C 45 % 4 km/h (6 km/h) 0 mm0 mm 0 cm 0 min 3.8 W/m²
07:36 13.3 °C 1.3 °C 44 % 4 km/h (6 km/h) 0 mm0 mm 0 cm 0 min 0 W/m²
07:30 13.3 °C 1 °C 43 % 4 km/h (6 km/h) 0 mm0 mm 0 cm 0 min 0 W/m²
07:24 13.2 °C 1.5 °C 45 % 4 km/h (6 km/h) 0 mm0 mm 0 cm 0 min 0 W/m²
07:18 13.3 °C 1 °C 43 % 4 km/h (6 km/h) 0 mm0 mm 0 cm 0 min 0 W/m²
07:12 13.3 °C 1.3 °C 44 % 4 km/h (7 km/h) 0 mm0 mm 0 cm 0 min 0 W/m²
07:06 13.2 °C 2.4 °C 48 % 4 km/h (7 km/h) 0 mm0 mm 0 cm 0 min 0 W/m²
07:00 13 °C 3.1 °C 51 % 3 km/h (6 km/h) 0 mm0 mm 0 cm 0 min 0 W/m²
06:54 12.8 °C 3.2 °C 52 % 4 km/h (6 km/h) 0 mm0 mm 0 cm 0 min 0 W/m²
06:48 12.8 °C 4.5 °C 57 % 4 km/h (6 km/h) 0 mm0 mm 0 cm 0 min 0 W/m²
06:42 12.6 °C 4.5 °C 58 % 4 km/h (7 km/h) 0 mm0 mm 0 cm 0 min 0 W/m²
06:36 12.2 °C 4.7 °C 60 % 5 km/h (7 km/h) 0 mm0 mm 0 cm 0 min 0 W/m²
06:30 12.9 °C 5.3 °C 60 % 5 km/h (9 km/h) 0 mm0 mm 0 cm 0 min 0 W/m²
06:24 12.7 °C 5.4 °C 61 % 5 km/h (9 km/h) 0 mm0 mm 0 cm 0 min 0 W/m²
06:18 12.8 °C 5.5 °C 61 % 5 km/h (7 km/h) 0 mm0 mm 0 cm 0 min 0 W/m²
06:12 12.9 °C 5.8 °C 62 % 5 km/h (8 km/h) 0 mm0 mm 0 cm 0 min 0 W/m²
06:06 12.7 °C 5.6 °C 62 % 6 km/h (9 km/h) 0 mm0 mm 0 cm 0 min 0 W/m²
06:00 12.8 °C 5.7 °C 62 % 5 km/h (9 km/h) 0 mm0 mm 0 cm 0 min 0 W/m²
05:54 12.7 °C 5.8 °C 63 % 6 km/h (9 km/h) 0 mm0 mm 0 cm 0 min 0 W/m²
05:48 12.6 °C 6 °C 64 % 6 km/h (9 km/h) 0 mm0 mm 0 cm 0 min 0 W/m²
05:42 12.8 °C 6.8 °C 67 % 6 km/h (9 km/h) 0 mm0 mm 0 cm 0 min 0 W/m²
05:36 12.5 °C 7 °C 69 % 6 km/h (10 km/h) 0 mm0 mm 0 cm 0 min 0 W/m²
05:30 12.4 °C 6.9 °C 69 % 6 km/h (10 km/h) 0 mm0 mm 0 cm 0 min 0 W/m²
05:24 12.2 °C 7.3 °C 72 % 7 km/h (10 km/h) 0 mm0 mm 0 cm 0 min 0 W/m²
05:18 12.2 °C 7.3 °C 72 % 6 km/h (10 km/h) 0 mm0 mm 0 cm 0 min 0 W/m²
05:12 12.3 °C 7.6 °C 73 % 6 km/h (9 km/h) 0 mm0 mm 0 cm 0 min 0 W/m²
05:06 12.2 °C 7.5 °C 73 % 6 km/h (9 km/h) 0 mm0 mm 0 cm 0 min 0 W/m²
05:00 12.3 °C 7.4 °C 72 % 6 km/h (9 km/h) 0 mm0 mm 0 cm 0 min 0 W/m²
04:54 12.3 °C 7.2 °C 71 % 6 km/h (9 km/h) 0 mm0 mm 0 cm 0 min 0 W/m²
04:48 12.3 °C 7.2 °C 71 % 6 km/h (9 km/h) 0 mm0 mm 0 cm 0 min 0 W/m²
04:42 12.2 °C 7.1 °C 71 % 6 km/h (9 km/h) 0 mm0 mm 0 cm 0 min 0 W/m²
04:36 12.5 °C 7.4 °C 71 % 6 km/h (8 km/h) 0 mm0 mm 0 cm 0 min 0 W/m²
04:30 12.5 °C 7.4 °C 71 % 6 km/h (8 km/h) 0 mm0 mm 0 cm 0 min 0 W/m²
04:24 12.6 °C 7.5 °C 71 % 6 km/h (8 km/h) 0 mm0 mm 0 cm 0 min 0 W/m²
04:18 12.5 °C 7.4 °C 71 % 6 km/h (9 km/h) 0 mm0 mm 0 cm 0 min 0 W/m²
04:12 12.4 °C 7.3 °C 71 % 6 km/h (9 km/h) 0 mm0 mm 0 cm 0 min 0 W/m²
04:06 12.4 °C 7.1 °C 70 % 6 km/h (9 km/h) 0 mm0 mm 0 cm 0 min 0 W/m²
04:00 12.5 °C 7.4 °C 71 % 5 km/h (8 km/h) 0 mm0 mm 0 cm 0 min 0 W/m²
03:54 12.7 °C 7.6 °C 71 % 5 km/h (8 km/h) 0 mm0 mm 0 cm 0 min 0 W/m²
03:48 12.8 °C 7.7 °C 71 % 5 km/h (8 km/h) 0 mm0 mm 0 cm 0 min 0 W/m²
03:42 12.8 °C 7.7 °C 71 % 4 km/h (8 km/h) 0 mm0 mm 0 cm 0 min 0 W/m²
03:36 12.6 °C 7.3 °C 70 % 5 km/h (8 km/h) 0 mm0 mm 0 cm 0 min 0 W/m²
03:30 12.7 °C 7.4 °C 70 % 5 km/h (8 km/h) 0 mm0 mm 0 cm 0 min 0 W/m²
03:24 12.9 °C 7.6 °C 70 % 5 km/h (8 km/h) 0 mm0 mm 0 cm 0 min 0 W/m²
03:18 12.9 °C 7.6 °C 70 % 5 km/h (8 km/h) 0 mm0 mm 0 cm 0 min 0 W/m²
03:12 13 °C 7.7 °C 70 % 5 km/h (8 km/h) 0 mm0 mm 0 cm 0 min 0 W/m²
03:06 13.1 °C 7.7 °C 70 % 5 km/h (7 km/h) 0 mm0 mm 0 cm 0 min 0 W/m²
03:00 12.9 °C 7.6 °C 70 % 5 km/h (8 km/h) 0 mm0 mm 0 cm 0 min 0 W/m²
02:54 12.8 °C 7.5 °C 70 % 6 km/h (9 km/h) 0 mm0 mm 0 cm 0 min 0 W/m²
02:48 12.8 °C 7.5 °C 70 % 6 km/h (8 km/h) 0 mm0 mm 0 cm 0 min 0 W/m²
02:42 12.8 °C 7.2 °C 69 % 5 km/h (8 km/h) 0 mm0 mm 0 cm 0 min 0 W/m²
02:36 13 °C 7.4 °C 69 % 4 km/h (7 km/h) 0 mm0 mm 0 cm 0 min 0 W/m²
02:30 12.8 °C 7.2 °C 69 % 5 km/h (9 km/h) 0 mm0 mm 0 cm 0 min 0 W/m²
02:24 12.7 °C 6.7 °C 67 % 6 km/h (10 km/h) 0 mm0 mm 0 cm 0 min 0 W/m²
02:18 12.4 °C 6 °C 65 % 6 km/h (10 km/h) 0 mm0 mm 0 cm 0 min 0 W/m²
02:12 12.3 °C 5.7 °C 64 % 6 km/h (9 km/h) 0 mm0 mm 0 cm 0 min 0 W/m²
02:06 12.6 °C 6.2 °C 65 % 5 km/h (8 km/h) 0 mm0 mm 0 cm 0 min 0 W/m²
02:00 13 °C 6.8 °C 66 % 5 km/h (8 km/h) 0 mm0 mm 0 cm 0 min 0 W/m²
01:54 13.4 °C 6.7 °C 64 % 5 km/h (8 km/h) 0 mm0 mm 0 cm 0 min 0 W/m²
01:48 13.1 °C 6.4 °C 64 % 5 km/h (8 km/h) 0 mm0 mm 0 cm 0 min 0 W/m²
01:42 13 °C 6.6 °C 65 % 5 km/h (8 km/h) 0 mm0 mm 0 cm 0 min 0 W/m²
01:36 12.7 °C 6.3 °C 65 % 5 km/h (8 km/h) 0 mm0 mm 0 cm 0 min 0 W/m²
01:30 12.9 °C 6.2 °C 64 % 5 km/h (8 km/h) 0 mm0 mm 0 cm 0 min 0 W/m²
01:24 12.6 °C 6.4 °C 66 % 6 km/h (10 km/h) 0 mm0 mm 0 cm 0 min 0 W/m²
01:18 11.9 °C 4.8 °C 62 % 8 km/h (12 km/h) 0 mm0 mm 0 cm 0 min 0 W/m²
01:12 12.5 °C 5.4 °C 62 % 9 km/h (12 km/h) 0 mm0 mm 0 cm 0 min 0 W/m²
01:06 12.5 °C 6.7 °C 68 % 9 km/h (13 km/h) 0 mm0 mm 0 cm 0 min 0 W/m²
01:00 12.6 °C 7.1 °C 69 % 10 km/h (14 km/h) 0 mm0 mm 0 cm 0 min 0 W/m²
00:54 12.8 °C 7.5 °C 70 % 11 km/h (16 km/h) 0 mm0 mm 0 cm 0 min 0 W/m²
00:48 12.9 °C 7.8 °C 71 % 11 km/h (17 km/h) 0 mm0 mm 0 cm 0 min 0 W/m²
00:42 13.1 °C 8 °C 71 % 12 km/h (17 km/h) 0 mm0 mm 0 cm 0 min 0 W/m²
00:36 12.9 °C 7.8 °C 71 % 12 km/h (17 km/h) 0 mm0 mm 0 cm 0 min 0 W/m²
00:30 13.1 °C 8 °C 71 % 13 km/h (17 km/h) 0 mm0 mm 0 cm 0 min 0 W/m²
00:24 12.9 °C 8 °C 72 % 13 km/h (16 km/h) 0 mm0 mm 0 cm 0 min 0 W/m²
00:18 13 °C 7.9 °C 71 % 12 km/h (16 km/h) 0 mm0 mm 0 cm 0 min 0 W/m²
00:12 13.1 °C 8 °C 71 % 12 km/h (15 km/h) 0 mm0 mm 0 cm 0 min 0 W/m²
00:06 13 °C 7.7 °C 70 % 12 km/h (15 km/h) 0 mm0 mm 0 cm 0 min 0 W/m²
00:00 13.2 °C 7.8 °C 70 % 12 km/h (15 km/h) 0 mm0 mm 0 cm 0 min 0 W/m²

Données via Météo-France

Relevés météo à Chastreix

Cette page rassemble les observations de la station de Chastreix : température, humidité, vent, précipitations et pression atmosphérique. Les graphiques facilitent le suivi de la journée, tandis que le tableau donne accès aux mesures horaires et infra-horaires disponibles.

Pour replacer ces mesures dans leur contexte, consultez la climatologie de Chastreix ainsi que ses normales et records. Retrouvez aussi la carte des observations météo en temps réel.